Chie Maru No.10 — JD2376 — position and weather

sailwx.info

Track history (hours):
 
Tides and Currents Weather Stations Pressure Air Temp Water Temp Dewpoint Dewpoint Depression Visibility Wind Speed Wind Dir Waves Ship Positions

Chie Maru No.10

Last reported at 2015-Apr-18 04:33 UTC. Time now 2015-Apr-18 04:53 UTC.
Position N 35°24' E 139°40'.

Length 72 m; draft 3.8 m.

Type: Ship. MMSI: 431000147.

Date/timePositionNaut miles runAvg speedWind from/ knotsBaromVisibWave heightAir tempDewpointWater temp
2015-Apr-18 04:33N 35°24' E 139°40'1 0.6
2015-Apr-18 03:33N 35°24' E 139°39'4 3.9
2015-Apr-18 02:32N 35°22' E 139°44'0 0.1
2015-Apr-18 01:33N 35°22' E 139°44'0 0.0
2015-Apr-18 00:33N 35°22' E 139°44'0 0.1
2015-Apr-17 23:33N 35°22' E 139°44'0 0.1
2015-Apr-17 22:33N 35°22' E 139°44'0 0.0
2015-Apr-17 21:33N 35°22' E 139°44'0 0.0
2015-Apr-17 20:33N 35°22' E 139°44'0 0.1
2015-Apr-17 19:33N 35°22' E 139°44'0 0.0
2015-Apr-17 18:33N 35°22' E 139°44'0 0.0
2015-Apr-17 17:33N 35°22' E 139°44'0 0.1
2015-Apr-17 16:33N 35°22' E 139°44'0 0.0
2015-Apr-17 15:33N 35°22' E 139°44'0 0.0
2015-Apr-17 14:33N 35°22' E 139°44'0 0.0
2015-Apr-17 13:33N 35°22' E 139°44'0 0.1
2015-Apr-17 12:33N 35°22' E 139°44'0 0.0
2015-Apr-17 11:33N 35°22' E 139°44'0 0.0
2015-Apr-17 10:34N 35°22' E 139°44'0 0.0
2015-Apr-17 09:33N 35°22' E 139°44'4 4.3
2015-Apr-17 08:33N 35°24' E 139°40'0 0.1
2015-Apr-17 07:33N 35°24' E 139°40'0 0.0
2015-Apr-17 06:34N 35°24' E 139°40'0 0.0
2015-Apr-17 05:33N 35°24' E 139°40'7 7.3
2015-Apr-17 04:33N 35°28' E 139°47'3 2.5
2015-Apr-17 03:33N 35°31' E 139°46'0 0.0
2015-Apr-17 02:33N 35°31' E 139°46'0 0.0
2015-Apr-17 01:33N 35°31' E 139°46'0 0.0
2015-Apr-17 00:33N 35°31' E 139°46'0 0.0
2015-Apr-16 23:33N 35°31' E 139°46'0 0.2
2015-Apr-16 22:33N 35°31' E 139°46'4 3.5
2015-Apr-16 21:34N 35°31' E 139°51'0 0.0
2015-Apr-16 20:33N 35°31' E 139°51'0 0.0
2015-Apr-16 19:33N 35°31' E 139°51'0 0.0
2015-Apr-16 18:33N 35°31' E 139°51'0 0.0
2015-Apr-16 17:33N 35°31' E 139°51'0 0.0
2015-Apr-16 16:34N 35°31' E 139°51'0 0.0
2015-Apr-16 15:34N 35°31' E 139°51'0 0.0
2015-Apr-16 14:33N 35°31' E 139°51'0 0.0
2015-Apr-16 13:32N 35°31' E 139°51'0 0.1
2015-Apr-16 12:33N 35°31' E 139°51'1010.2
2015-Apr-16 11:33N 35°38' E 139°58'3 2.6
2015-Apr-16 10:33N 35°41' E 139°56'0 0.0
2015-Apr-16 09:33N 35°41' E 139°56'0 0.0
2015-Apr-16 08:33N 35°41' E 139°56'0 0.0
2015-Apr-16 07:33N 35°41' E 139°56'1 1.0
2015-Apr-16 06:33N 35°40' E 139°57'1110.8
2015-Apr-16 05:33N 35°30' E 140°02'0 0.2
2015-Apr-16 04:33N 35°30' E 140°02'0 0.0
2015-Apr-16 03:33N 35°30' E 140°02'0 0.0
2015-Apr-16 02:33N 35°30' E 140°02'0 0.0
2015-Apr-16 01:33N 35°30' E 140°02'2 1.8
2015-Apr-16 00:33N 35°31' E 140°00'9 8.6
2015-Apr-15 23:33N 35°39' E 139°59'2 1.9
2015-Apr-15 22:33N 35°41' E 139°59'0 0.0
2015-Apr-15 21:33N 35°41' E 139°59'0 0.0
2015-Apr-15 20:33N 35°41' E 139°59'0 0.0
2015-Apr-15 19:33N 35°41' E 139°59'0 0.0
2015-Apr-15 18:33N 35°41' E 139°59'0 0.0
2015-Apr-15 17:33N 35°41' E 139°59'0 0.0
2015-Apr-15 16:33N 35°41' E 139°59'0 0.0
2015-Apr-15 15:33N 35°41' E 139°59'0 0.0
2015-Apr-15 14:33N 35°41' E 139°59'0 0.0
2015-Apr-15 13:33N 35°41' E 139°59'0 0.0
2015-Apr-15 12:33N 35°41' E 139°59'0 0.0
2015-Apr-15 11:32N 35°41' E 139°59'0 0.0
2015-Apr-15 10:33N 35°41' E 139°59'0 0.0
2015-Apr-15 09:33N 35°41' E 139°59'0 0.0
2015-Apr-15 08:32N 35°41' E 139°59'0 0.0
2015-Apr-15 07:32N 35°41' E 139°59'0 0.0
2015-Apr-15 06:33N 35°41' E 139°59'0 0.1
2015-Apr-15 05:31N 35°41' E 139°59'1211.2
2015-Apr-15 04:27N 35°30' E 139°53'1112.3
2015-Apr-15 03:33N 35°22' E 139°44'0 0.0
2015-Apr-15 02:31N 35°22' E 139°44'0 0.0
2015-Apr-15 01:31N 35°22' E 139°44'0 0.0
2015-Apr-15 00:31N 35°22' E 139°44'0 0.0
2015-Apr-14 23:33N 35°22' E 139°44'0 0.0
2015-Apr-14 22:33N 35°22' E 139°44'0 0.0
2015-Apr-14 21:34N 35°22' E 139°44'0 0.0
2015-Apr-14 20:33N 35°22' E 139°44'0 0.1
2015-Apr-14 19:33N 35°22' E 139°44'0 0.0
2015-Apr-14 18:33N 35°22' E 139°44'0 0.0
2015-Apr-14 17:33N 35°22' E 139°44'0 0.0
2015-Apr-14 16:33N 35°22' E 139°44'0 0.1
2015-Apr-14 15:34N 35°22' E 139°44'0 0.0
2015-Apr-14 14:33N 35°22' E 139°44'0 0.1
2015-Apr-14 13:33N 35°22' E 139°44'8 8.0
2015-Apr-14 12:33N 35°14' E 139°47'1111.1
2015-Apr-14 11:33N 35°04' E 139°42'7 0.2
2015-Apr-13 05:33N 35°03' E 139°34'1312.7
2015-Apr-13 04:33N 35°12' E 139°46'1212.3
2015-Apr-13 03:33N 35°24' E 139°43'8 7.9
2015-Apr-13 02:33N 35°31' E 139°46'0 0.0
2015-Apr-13 01:33N 35°31' E 139°46'0 0.0
2015-Apr-13 00:33N 35°31' E 139°46'0 0.0
2015-Apr-12 23:33N 35°31' E 139°46'0 0.0
2015-Apr-12 22:33N 35°31' E 139°46'3 3.4
2015-Apr-12 21:34N 35°29' E 139°49'0 0.0
2015-Apr-12 20:33N 35°29' E 139°49'0 0.0
2015-Apr-12 19:33N 35°29' E 139°49'0 0.0
2015-Apr-12 18:33N 35°29' E 139°49'0 0.0
2015-Apr-12 17:33N 35°29' E 139°49'0 0.0
2015-Apr-12 16:33N 35°29' E 139°49'0 0.0
2015-Apr-12 15:33N 35°29' E 139°49'0 0.0
2015-Apr-12 14:33N 35°29' E 139°49'0 0.0
2015-Apr-12 13:33N 35°29' E 139°49'0 0.0
2015-Apr-12 12:33N 35°29' E 139°49'0 0.0
2015-Apr-12 11:33N 35°29' E 139°49'0 0.0
2015-Apr-12 10:33N 35°29' E 139°49'0 0.0
2015-Apr-12 09:33N 35°29' E 139°49'0 0.0
2015-Apr-12 08:33N 35°29' E 139°49'3 2.8
2015-Apr-12 07:33N 35°26' E 139°47'1111.1
2015-Apr-12 06:33N 35°15' E 139°47'1211.6
2015-Apr-12 05:33N 35°04' E 139°43'24010.0
2015-Apr-11 05:30N 34°10' E 134°59'1312.2
2015-Apr-11 04:28N 34°22' E 135°04'1313.2
2015-Apr-11 03:31N 34°31' E 135°15'8 1.6
2015-Apr-10 22:31N 34°32' E 135°25'5 5.2
2015-Apr-10 21:33N 34°33' E 135°19'0 0.2
2015-Apr-10 20:25N 34°33' E 135°19'0 0.1
2015-Apr-10 19:33N 34°33' E 135°18'0 0.0
2015-Apr-10 18:33N 34°33' E 135°18'0 0.0
2015-Apr-10 17:33N 34°33' E 135°18'0 0.0
2015-Apr-10 16:33N 34°33' E 135°18'8 7.6
2015-Apr-10 15:33N 34°35' E 135°10'10 9.0
2015-Apr-10 14:28N 34°36' E 134°58'  
Track history (hours):
 
Tides and Currents Weather Stations Pressure Air Temp Water Temp Dewpoint Dewpoint Depression Visibility Wind Speed Wind Dir Waves Ship Positions

Chie Maru No.10

Last reported at 2015-Apr-18 04:33 UTC. Time now 2015-Apr-18 04:53 UTC.
Position N 35°24' E 139°40'.

Length 72 m; draft 3.8 m.

Type: Ship. MMSI: 431000147.

Date/timePositionNaut miles runAvg speedWind from/ knotsBaromVisibWave heightAir tempDewpointWater temp
2015-Apr-18 04:33N 35°24' E 139°40'1 0.6
2015-Apr-18 03:33N 35°24' E 139°39'4 3.9
2015-Apr-18 02:32N 35°22' E 139°44'0 0.1
2015-Apr-18 01:33N 35°22' E 139°44'0 0.0
2015-Apr-18 00:33N 35°22' E 139°44'0 0.1
2015-Apr-17 23:33N 35°22' E 139°44'0 0.1
2015-Apr-17 22:33N 35°22' E 139°44'0 0.0
2015-Apr-17 21:33N 35°22' E 139°44'0 0.0
2015-Apr-17 20:33N 35°22' E 139°44'0 0.1
2015-Apr-17 19:33N 35°22' E 139°44'0 0.0
2015-Apr-17 18:33N 35°22' E 139°44'0 0.0
2015-Apr-17 17:33N 35°22' E 139°44'0 0.1
2015-Apr-17 16:33N 35°22' E 139°44'0 0.0
2015-Apr-17 15:33N 35°22' E 139°44'0 0.0
2015-Apr-17 14:33N 35°22' E 139°44'0 0.0
2015-Apr-17 13:33N 35°22' E 139°44'0 0.1
2015-Apr-17 12:33N 35°22' E 139°44'0 0.0
2015-Apr-17 11:33N 35°22' E 139°44'0 0.0
2015-Apr-17 10:34N 35°22' E 139°44'0 0.0
2015-Apr-17 09:33N 35°22' E 139°44'4 4.3
2015-Apr-17 08:33N 35°24' E 139°40'0 0.1
2015-Apr-17 07:33N 35°24' E 139°40'0 0.0
2015-Apr-17 06:34N 35°24' E 139°40'0 0.0
2015-Apr-17 05:33N 35°24' E 139°40'7 7.3
2015-Apr-17 04:33N 35°28' E 139°47'3 2.5
2015-Apr-17 03:33N 35°31' E 139°46'0 0.0
2015-Apr-17 02:33N 35°31' E 139°46'0 0.0
2015-Apr-17 01:33N 35°31' E 139°46'0 0.0
2015-Apr-17 00:33N 35°31' E 139°46'0 0.0
2015-Apr-16 23:33N 35°31' E 139°46'0 0.2
2015-Apr-16 22:33N 35°31' E 139°46'4 3.5
2015-Apr-16 21:34N 35°31' E 139°51'0 0.0
2015-Apr-16 20:33N 35°31' E 139°51'0 0.0
2015-Apr-16 19:33N 35°31' E 139°51'0 0.0
2015-Apr-16 18:33N 35°31' E 139°51'0 0.0
2015-Apr-16 17:33N 35°31' E 139°51'0 0.0
2015-Apr-16 16:34N 35°31' E 139°51'0 0.0
2015-Apr-16 15:34N 35°31' E 139°51'0 0.0
2015-Apr-16 14:33N 35°31' E 139°51'0 0.0
2015-Apr-16 13:32N 35°31' E 139°51'0 0.1
2015-Apr-16 12:33N 35°31' E 139°51'1010.2
2015-Apr-16 11:33N 35°38' E 139°58'3 2.6
2015-Apr-16 10:33N 35°41' E 139°56'0 0.0
2015-Apr-16 09:33N 35°41' E 139°56'0 0.0
2015-Apr-16 08:33N 35°41' E 139°56'0 0.0
2015-Apr-16 07:33N 35°41' E 139°56'1 1.0
2015-Apr-16 06:33N 35°40' E 139°57'1110.8
2015-Apr-16 05:33N 35°30' E 140°02'0 0.2
2015-Apr-16 04:33N 35°30' E 140°02'0 0.0
2015-Apr-16 03:33N 35°30' E 140°02'0 0.0
2015-Apr-16 02:33N 35°30' E 140°02'0 0.0
2015-Apr-16 01:33N 35°30' E 140°02'2 1.8
2015-Apr-16 00:33N 35°31' E 140°00'9 8.6
2015-Apr-15 23:33N 35°39' E 139°59'2 1.9
2015-Apr-15 22:33N 35°41' E 139°59'0 0.0
2015-Apr-15 21:33N 35°41' E 139°59'0 0.0
2015-Apr-15 20:33N 35°41' E 139°59'0 0.0
2015-Apr-15 19:33N 35°41' E 139°59'0 0.0
2015-Apr-15 18:33N 35°41' E 139°59'0 0.0
2015-Apr-15 17:33N 35°41' E 139°59'0 0.0
2015-Apr-15 16:33N 35°41' E 139°59'0 0.0
2015-Apr-15 15:33N 35°41' E 139°59'0 0.0
2015-Apr-15 14:33N 35°41' E 139°59'0 0.0
2015-Apr-15 13:33N 35°41' E 139°59'0 0.0
2015-Apr-15 12:33N 35°41' E 139°59'0 0.0
2015-Apr-15 11:32N 35°41' E 139°59'0 0.0
2015-Apr-15 10:33N 35°41' E 139°59'0 0.0
2015-Apr-15 09:33N 35°41' E 139°59'0 0.0
2015-Apr-15 08:32N 35°41' E 139°59'0 0.0
2015-Apr-15 07:32N 35°41' E 139°59'0 0.0
2015-Apr-15 06:33N 35°41' E 139°59'0 0.1
2015-Apr-15 05:31N 35°41' E 139°59'1211.2
2015-Apr-15 04:27N 35°30' E 139°53'1112.3
2015-Apr-15 03:33N 35°22' E 139°44'0 0.0
2015-Apr-15 02:31N 35°22' E 139°44'0 0.0
2015-Apr-15 01:31N 35°22' E 139°44'0 0.0
2015-Apr-15 00:31N 35°22' E 139°44'0 0.0
2015-Apr-14 23:33N 35°22' E 139°44'0 0.0
2015-Apr-14 22:33N 35°22' E 139°44'0 0.0
2015-Apr-14 21:34N 35°22' E 139°44'0 0.0
2015-Apr-14 20:33N 35°22' E 139°44'0 0.1
2015-Apr-14 19:33N 35°22' E 139°44'0 0.0
2015-Apr-14 18:33N 35°22' E 139°44'0 0.0
2015-Apr-14 17:33N 35°22' E 139°44'0 0.0
2015-Apr-14 16:33N 35°22' E 139°44'0 0.1
2015-Apr-14 15:34N 35°22' E 139°44'0 0.0
2015-Apr-14 14:33N 35°22' E 139°44'0 0.1
2015-Apr-14 13:33N 35°22' E 139°44'8 8.0
2015-Apr-14 12:33N 35°14' E 139°47'1111.1
2015-Apr-14 11:33N 35°04' E 139°42'7 0.2
2015-Apr-13 05:33N 35°03' E 139°34'1312.7
2015-Apr-13 04:33N 35°12' E 139°46'1212.3
2015-Apr-13 03:33N 35°24' E 139°43'8 7.9
2015-Apr-13 02:33N 35°31' E 139°46'0 0.0
2015-Apr-13 01:33N 35°31' E 139°46'0 0.0
2015-Apr-13 00:33N 35°31' E 139°46'0 0.0
2015-Apr-12 23:33N 35°31' E 139°46'0 0.0
2015-Apr-12 22:33N 35°31' E 139°46'3 3.4
2015-Apr-12 21:34N 35°29' E 139°49'0 0.0
2015-Apr-12 20:33N 35°29' E 139°49'0 0.0
2015-Apr-12 19:33N 35°29' E 139°49'0 0.0
2015-Apr-12 18:33N 35°29' E 139°49'0 0.0
2015-Apr-12 17:33N 35°29' E 139°49'0 0.0
2015-Apr-12 16:33N 35°29' E 139°49'0 0.0
2015-Apr-12 15:33N 35°29' E 139°49'0 0.0
2015-Apr-12 14:33N 35°29' E 139°49'0 0.0
2015-Apr-12 13:33N 35°29' E 139°49'0 0.0
2015-Apr-12 12:33N 35°29' E 139°49'0 0.0
2015-Apr-12 11:33N 35°29' E 139°49'0 0.0
2015-Apr-12 10:33N 35°29' E 139°49'0 0.0
2015-Apr-12 09:33N 35°29' E 139°49'0 0.0
2015-Apr-12 08:33N 35°29' E 139°49'3 2.8
2015-Apr-12 07:33N 35°26' E 139°47'1111.1
2015-Apr-12 06:33N 35°15' E 139°47'1211.6
2015-Apr-12 05:33N 35°04' E 139°43'24010.0
2015-Apr-11 05:30N 34°10' E 134°59'1312.2
2015-Apr-11 04:28N 34°22' E 135°04'1313.2
2015-Apr-11 03:31N 34°31' E 135°15'8 1.6
2015-Apr-10 22:31N 34°32' E 135°25'5 5.2
2015-Apr-10 21:33N 34°33' E 135°19'0 0.2
2015-Apr-10 20:25N 34°33' E 135°19'0 0.1
2015-Apr-10 19:33N 34°33' E 135°18'0 0.0
2015-Apr-10 18:33N 34°33' E 135°18'0 0.0
2015-Apr-10 17:33N 34°33' E 135°18'0 0.0
2015-Apr-10 16:33N 34°33' E 135°18'8 7.6
2015-Apr-10 15:33N 34°35' E 135°10'10 9.0
2015-Apr-10 14:28N 34°36' E 134°58'  

Dump ship's entire track history